createdAt,value
2023-04-16T00:01:19.165Z,95675.47
2023-04-16T00:03:46.754Z,95672.84
2023-04-16T00:06:14.569Z,95668.44
2023-04-16T00:08:43.270Z,95672.19
2023-04-16T00:11:10.454Z,95674.44
2023-04-16T00:13:37.774Z,95680.03
2023-04-16T00:16:05.576Z,95676.28
2023-04-16T00:18:32.748Z,95671.22
2023-04-16T00:20:59.911Z,95670.56
2023-04-16T00:23:27.285Z,95676.81
2023-04-16T00:25:55.793Z,95684.13
2023-04-16T00:28:23.024Z,95679.06
2023-04-16T00:30:50.281Z,95676.06
2023-04-16T00:33:17.648Z,95677.19
2023-04-16T00:35:45.967Z,95681.63
2023-04-16T00:38:14.196Z,95679.19
2023-04-16T00:40:41.246Z,95678.81
2023-04-16T00:43:10.023Z,95683.38
2023-04-16T00:45:37.225Z,95683.03
2023-04-16T00:48:05.448Z,95683.63
2023-04-16T00:50:33.754Z,95685.44
2023-04-16T00:53:02.340Z,95688.47
2023-04-16T00:55:29.907Z,95689.66
2023-04-16T00:57:56.968Z,95682.81
2023-04-16T01:00:25.710Z,95678.41
2023-04-16T01:02:53.998Z,95676.41
2023-04-16T01:05:21.628Z,95675.78
2023-04-16T01:07:48.801Z,95675.38
2023-04-16T01:10:15.827Z,95674.41
2023-04-16T01:12:43.039Z,95667.34
2023-04-16T01:15:11.190Z,95672.41
2023-04-16T01:17:39.868Z,95668.44
2023-04-16T01:20:07.590Z,95658.78
2023-04-16T01:22:36.110Z,95670.88
2023-04-16T01:25:03.433Z,95671.72
2023-04-16T01:27:30.596Z,95683.81
2023-04-16T01:29:57.687Z,95682.19
2023-04-16T01:32:24.949Z,95681.59
2023-04-16T01:34:52.214Z,95675.75
2023-04-16T01:37:19.351Z,95690.22
2023-04-16T01:39:47.831Z,95693.44
2023-04-16T01:42:14.852Z,95689.41
2023-04-16T01:44:41.952Z,95690.03
2023-04-16T01:47:09.081Z,95691.91
2023-04-16T01:49:36.252Z,95689.78
2023-04-16T01:52:03.412Z,95687.13
2023-04-16T01:54:30.833Z,95699.84
2023-04-16T01:56:59.312Z,95694.75
2023-04-16T01:59:26.356Z,95697.97
2023-04-16T02:01:53.943Z,95688.44
2023-04-16T02:04:21.171Z,95690.34
2023-04-16T02:06:48.279Z,95693.31
2023-04-16T02:09:15.520Z,95690.63
2023-04-16T02:11:42.558Z,95697.13
2023-04-16T02:14:11.032Z,95688.53
2023-04-16T02:16:38.147Z,95697.72
2023-04-16T02:19:05.391Z,95684.47
2023-04-16T02:21:32.506Z,95688.06
2023-04-16T02:23:59.584Z,95688.28
2023-04-16T02:26:26.615Z,95692.09
2023-04-16T02:28:53.690Z,95694.88
2023-04-16T02:31:22.271Z,95694.00
2023-04-16T02:33:49.485Z,95689.75
2023-04-16T02:36:16.624Z,95696.44
2023-04-16T02:38:43.686Z,95696.44
2023-04-16T02:41:10.768Z,95700.16
2023-04-16T02:43:38.128Z,95696.50
2023-04-16T02:46:05.324Z,95695.72
2023-04-16T02:48:33.931Z,95695.19
2023-04-16T02:51:01.146Z,95693.66
2023-04-16T02:53:28.285Z,95692.88
2023-04-16T02:55:56.579Z,95684.63
2023-04-16T02:58:25.422Z,95683.47
2023-04-16T03:00:54.059Z,95685.47
2023-04-16T03:03:21.818Z,95695.88
2023-04-16T03:05:50.610Z,95690.59
2023-04-16T03:08:17.785Z,95691.28
2023-04-16T03:10:44.830Z,95693.09
2023-04-16T03:13:11.990Z,95691.78
2023-04-16T03:15:39.181Z,95691.66
2023-04-16T03:18:06.237Z,95684.19
2023-04-16T03:20:33.791Z,95690.09
2023-04-16T03:23:02.503Z,95681.75
2023-04-16T03:25:29.597Z,95683.63
2023-04-16T03:27:56.842Z,95674.44
2023-04-16T03:30:23.992Z,95681.44
2023-04-16T03:32:51.101Z,95685.06
2023-04-16T03:35:18.409Z,95691.69
2023-04-16T03:37:45.471Z,95676.00
2023-04-16T03:40:14.627Z,95681.88
2023-04-16T03:42:41.715Z,95682.53
2023-04-16T03:45:09.668Z,95683.75
2023-04-16T03:47:36.897Z,95681.94
2023-04-16T03:50:04.519Z,95687.25
2023-04-16T03:52:31.910Z,95686.72
2023-04-16T03:54:58.996Z,95696.91
2023-04-16T03:57:27.524Z,95686.25
2023-04-16T03:59:54.650Z,95694.22
2023-04-16T04:02:21.860Z,95686.25
2023-04-16T04:04:49.210Z,95688.97
2023-04-16T04:07:16.631Z,95688.88
2023-04-16T04:09:43.690Z,95686.28
2023-04-16T04:12:10.770Z,95687.94
2023-04-16T04:14:39.434Z,95687.56
2023-04-16T04:17:06.760Z,95686.47
2023-04-16T04:19:33.919Z,95688.31
2023-04-16T04:22:01.031Z,95692.16
2023-04-16T04:24:28.230Z,95688.81
2023-04-16T04:26:55.436Z,95701.91
2023-04-16T04:29:22.594Z,95694.22
2023-04-16T04:31:51.445Z,95699.69
2023-04-16T04:34:19.086Z,95702.22
2023-04-16T04:36:46.162Z,95695.31
2023-04-16T04:39:13.509Z,95696.47
2023-04-16T04:41:40.615Z,95707.25
2023-04-16T04:44:07.928Z,95701.97
2023-04-16T04:46:35.119Z,95699.44
2023-04-16T04:49:03.827Z,95700.34
2023-04-16T04:51:30.977Z,95705.88
2023-04-16T04:53:58.430Z,95710.34
2023-04-16T04:56:25.468Z,95710.94
2023-04-16T04:58:52.854Z,95708.16
2023-04-16T05:01:20.123Z,95719.25
2023-04-16T05:03:47.426Z,95715.44
2023-04-16T05:06:16.749Z,95714.63
2023-04-16T05:08:43.889Z,95709.38
2023-04-16T05:11:10.984Z,95717.53
2023-04-16T05:13:38.129Z,95704.38
2023-04-16T05:16:06.206Z,95710.44
2023-04-16T05:18:33.353Z,95709.66
2023-04-16T05:21:00.752Z,95708.66
2023-04-16T05:23:29.256Z,95708.44
2023-04-16T05:25:56.376Z,95714.25
2023-04-16T05:28:23.531Z,95721.34
2023-04-16T05:30:51.263Z,95719.47
2023-04-16T05:33:18.390Z,95717.22
2023-04-16T05:35:45.479Z,95721.63
2023-04-16T05:38:12.673Z,95722.63
2023-04-16T05:40:41.329Z,95720.72
2023-04-16T05:43:08.413Z,95710.25
2023-04-16T05:45:35.446Z,95707.94
2023-04-16T05:48:02.522Z,95716.25
2023-04-16T05:50:29.632Z,95707.03
2023-04-16T05:52:56.733Z,95712.56
2023-04-16T05:55:24.006Z,95715.41
2023-04-16T05:57:52.510Z,95716.03
2023-04-16T06:00:19.766Z,95715.22
2023-04-16T06:02:47.028Z,95719.25
2023-04-16T06:05:14.529Z,95724.09
2023-04-16T06:07:41.728Z,95721.31
2023-04-16T06:10:09.806Z,95722.13
2023-04-16T06:12:36.908Z,95725.59
2023-04-16T06:15:07.239Z,95725.50
2023-04-16T06:17:34.373Z,95729.56
2023-04-16T06:20:01.531Z,95730.00
2023-04-16T06:22:29.585Z,95723.91
2023-04-16T06:24:56.738Z,95725.81
2023-04-16T06:27:23.929Z,95727.13
2023-04-16T06:29:51.007Z,95724.41
2023-04-16T06:32:19.862Z,95726.31
2023-04-16T06:34:47.090Z,95718.19
2023-04-16T06:37:14.128Z,95725.09
2023-04-16T06:39:41.231Z,95720.16
2023-04-16T06:42:08.480Z,95721.75
2023-04-16T06:44:35.877Z,95726.72
2023-04-16T06:47:03.152Z,95725.72
2023-04-16T06:49:31.685Z,95719.63
2023-04-16T06:51:58.952Z,95726.25
2023-04-16T06:54:26.189Z,95724.00
2023-04-16T06:56:53.307Z,95729.06
2023-04-16T06:59:20.306Z,95725.56
2023-04-16T07:01:47.594Z,95718.69
2023-04-16T07:04:14.963Z,95722.66
2023-04-16T07:06:43.627Z,95721.47
2023-04-16T07:09:11.147Z,95719.41
2023-04-16T07:11:38.597Z,95728.47
2023-04-16T07:14:05.848Z,95733.47
2023-04-16T07:16:33.028Z,95736.63
2023-04-16T07:19:00.384Z,95736.41
2023-04-16T07:21:27.548Z,95740.00
2023-04-16T07:23:56.169Z,95743.88
2023-04-16T07:26:23.251Z,95745.88
2023-04-16T07:28:50.390Z,95743.47
2023-04-16T07:31:17.698Z,95740.59
2023-04-16T07:33:46.291Z,95753.84
2023-04-16T07:36:13.385Z,95743.13
2023-04-16T07:38:40.452Z,95745.41
2023-04-16T07:41:09.289Z,95753.50
2023-04-16T07:43:37.071Z,95758.38
2023-04-16T07:46:04.462Z,95748.66
2023-04-16T07:48:31.609Z,95752.38
2023-04-16T07:50:58.922Z,95760.81
2023-04-16T07:53:26.049Z,95759.81
2023-04-16T07:55:53.128Z,95757.16
2023-04-16T07:58:21.830Z,95757.53
2023-04-16T08:00:50.881Z,95766.59
2023-04-16T08:03:18.645Z,95760.72
2023-04-16T08:05:45.909Z,95770.66
2023-04-16T08:08:13.194Z,95762.53
2023-04-16T08:10:40.326Z,95773.28
2023-04-16T08:13:07.374Z,95768.75
2023-04-16T08:15:35.970Z,95774.25
2023-04-16T08:18:03.398Z,95771.25
2023-04-16T08:20:30.729Z,95773.84
2023-04-16T08:22:57.808Z,95776.25
2023-04-16T08:25:24.926Z,95783.38
2023-04-16T08:27:52.050Z,95778.09
2023-04-16T08:30:19.353Z,95785.16
2023-04-16T08:32:50.051Z,95781.50
2023-04-16T08:35:17.581Z,95783.94
2023-04-16T08:37:44.792Z,95781.84
2023-04-16T08:40:12.586Z,95788.28
2023-04-16T08:42:44.974Z,95792.09
2023-04-16T08:45:16.851Z,95789.09
2023-04-16T08:47:49.104Z,95784.84
2023-04-16T08:50:17.733Z,95787.75
2023-04-16T08:52:51.228Z,95793.22
2023-04-16T08:55:22.239Z,95795.69
2023-04-16T08:57:55.049Z,95798.97
2023-04-16T09:00:22.948Z,95802.63
2023-04-16T09:02:52.478Z,95802.59
2023-04-16T09:05:20.621Z,95794.50
2023-04-16T09:07:48.810Z,95802.22
2023-04-16T09:10:16.041Z,95808.81
2023-04-16T09:12:43.989Z,95804.19
2023-04-16T09:15:13.258Z,95814.44
2023-04-16T09:17:40.794Z,95815.72
2023-04-16T09:20:10.567Z,95815.81
2023-04-16T09:22:38.481Z,95819.63
2023-04-16T09:25:07.331Z,95825.91
2023-04-16T09:27:34.737Z,95818.09
2023-04-16T09:30:01.871Z,95816.09
2023-04-16T09:32:29.411Z,95818.00
2023-04-16T09:34:58.815Z,95816.13
2023-04-16T09:37:29.289Z,95819.38
2023-04-16T09:39:58.552Z,95815.56
2023-04-16T09:42:28.285Z,95813.88
2023-04-16T09:44:59.389Z,95824.28
2023-04-16T09:47:39.965Z,95817.41
2023-04-16T09:50:08.429Z,95824.13
2023-04-16T09:52:38.031Z,95821.69
2023-04-16T09:55:06.216Z,95826.94
2023-04-16T09:57:33.421Z,95819.91
2023-04-16T10:00:04.192Z,95823.53
2023-04-16T10:02:31.710Z,95816.44
2023-04-16T10:05:01.888Z,95816.31
2023-04-16T10:07:33.330Z,95823.97
2023-04-16T10:10:03.813Z,95824.72
2023-04-16T10:12:31.274Z,95830.81
2023-04-16T10:14:58.541Z,95832.63
2023-04-16T10:17:26.979Z,95831.28
2023-04-16T10:19:55.471Z,95828.44
2023-04-16T10:22:22.806Z,95829.66
2023-04-16T10:24:51.135Z,95832.78
2023-04-16T10:27:20.661Z,95825.84
2023-04-16T10:29:50.043Z,95835.59
2023-04-16T10:32:19.447Z,95826.44
2023-04-16T10:34:48.552Z,95828.53
2023-04-16T10:37:16.692Z,95827.25
2023-04-16T10:39:43.862Z,95832.47
2023-04-16T10:42:12.310Z,95833.06
2023-04-16T10:44:45.238Z,95831.66
2023-04-16T10:47:14.424Z,95838.34
2023-04-16T10:49:42.361Z,95835.59
2023-04-16T10:52:12.269Z,95844.25
2023-04-16T10:54:40.721Z,95847.72
2023-04-16T10:57:10.712Z,95843.69
2023-04-16T10:59:38.566Z,95840.91
2023-04-16T11:02:13.079Z,95845.66
2023-04-16T11:04:43.973Z,95841.59
2023-04-16T11:07:19.862Z,95843.84
2023-04-16T11:09:52.835Z,95843.84
2023-04-16T11:12:21.491Z,95846.06
2023-04-16T11:14:51.109Z,95844.63
2023-04-16T11:17:20.682Z,95843.25
2023-04-16T11:19:47.975Z,95845.47
2023-04-16T11:22:17.685Z,95845.88
2023-04-16T11:24:46.360Z,95848.31
2023-04-16T11:27:15.247Z,95853.41
2023-04-16T11:29:42.863Z,95845.91
2023-04-16T11:32:10.807Z,95846.13
2023-04-16T11:34:47.384Z,95841.47
2023-04-16T11:37:14.648Z,95837.03
2023-04-16T11:39:51.544Z,95848.53
2023-04-16T11:42:23.023Z,95843.88
2023-04-16T11:44:54.536Z,95843.47
2023-04-16T11:47:22.616Z,95841.44
2023-04-16T11:49:51.908Z,95838.16
2023-04-16T11:52:30.307Z,95839.34
2023-04-16T11:54:58.550Z,95834.91
2023-04-16T11:57:27.289Z,95832.06
2023-04-16T12:00:02.098Z,95839.69
2023-04-16T12:02:38.429Z,95836.38
2023-04-16T12:05:25.769Z,95839.94
2023-04-16T12:07:53.149Z,95834.03
2023-04-16T12:10:20.374Z,95834.00
2023-04-16T12:12:47.491Z,95836.91
2023-04-16T12:15:15.089Z,95844.56
2023-04-16T12:17:42.294Z,95840.47
2023-04-16T12:20:13.724Z,95840.47
2023-04-16T12:22:45.842Z,95834.97
2023-04-16T12:25:15.165Z,95840.31
2023-04-16T12:27:44.510Z,95841.66
2023-04-16T12:30:12.829Z,95839.88
2023-04-16T12:32:41.088Z,95840.47
2023-04-16T12:35:10.757Z,95843.94
2023-04-16T12:37:38.666Z,95845.94
2023-04-16T12:40:07.145Z,95838.44
2023-04-16T12:42:34.709Z,95834.81
2023-04-16T12:45:02.669Z,95839.09
2023-04-16T12:47:29.910Z,95840.06
2023-04-16T12:49:57.295Z,95840.47
2023-04-16T12:52:26.529Z,95841.69
2023-04-16T12:54:53.896Z,95838.63
2023-04-16T12:57:21.258Z,95833.97
2023-04-16T12:59:48.310Z,95827.41
2023-04-16T13:02:15.491Z,95824.53
2023-04-16T13:04:42.783Z,95823.91
2023-04-16T13:07:10.095Z,95816.88
2023-04-16T13:09:40.000Z,95822.75
2023-04-16T13:12:07.867Z,95824.72
2023-04-16T13:14:35.154Z,95819.97
2023-04-16T13:17:02.253Z,95821.84
2023-04-16T13:19:29.419Z,95823.34
2023-04-16T13:21:56.913Z,95817.38
2023-04-16T13:24:24.771Z,95821.56
2023-04-16T13:26:53.392Z,95829.06
2023-04-16T13:29:20.875Z,95818.56
2023-04-16T13:31:48.869Z,95821.03
2023-04-16T13:34:16.154Z,95821.53
2023-04-16T13:36:43.327Z,95817.63
2023-04-16T13:39:10.562Z,95817.22
2023-04-16T13:41:38.209Z,95816.25
2023-04-16T13:44:06.728Z,95815.69
2023-04-16T13:46:34.198Z,95820.34
2023-04-16T13:49:01.670Z,95818.75
2023-04-16T13:51:29.031Z,95817.53
2023-04-16T13:53:56.208Z,95817.72
2023-04-16T13:56:23.582Z,95815.09
2023-04-16T13:58:50.848Z,95813.88
2023-04-16T14:01:19.669Z,95815.31
2023-04-16T14:03:46.909Z,95816.50
2023-04-16T14:06:14.172Z,95813.09
2023-04-16T14:08:41.352Z,95811.69
2023-04-16T14:11:08.687Z,95821.63
2023-04-16T14:13:35.924Z,95820.03
2023-04-16T14:16:03.694Z,95812.78
2023-04-16T14:18:32.412Z,95819.47
2023-04-16T14:20:59.548Z,95820.91
2023-04-16T14:23:26.771Z,95820.34
2023-04-16T14:25:53.886Z,95819.31
2023-04-16T14:28:21.130Z,95815.69
2023-04-16T14:30:48.508Z,95823.56
2023-04-16T14:33:15.788Z,95818.31
2023-04-16T14:35:44.427Z,95811.94
2023-04-16T14:38:11.976Z,95818.41
2023-04-16T14:40:39.208Z,95814.47
2023-04-16T14:43:06.287Z,95816.06
2023-04-16T14:45:33.553Z,95814.03
2023-04-16T14:48:00.793Z,95819.91
2023-04-16T14:50:28.148Z,95809.00
2023-04-16T14:52:56.728Z,95813.66
2023-04-16T14:55:24.223Z,95814.66
2023-04-16T14:57:51.635Z,95812.22
2023-04-16T15:00:19.192Z,95808.16
2023-04-16T15:02:46.639Z,95810.34
2023-04-16T15:05:13.915Z,95812.31
2023-04-16T15:07:41.047Z,95808.69
2023-04-16T15:10:10.199Z,95804.63
2023-04-16T15:12:37.957Z,95815.13
2023-04-16T15:15:06.304Z,95805.84
2023-04-16T15:17:33.895Z,95809.28
2023-04-16T15:20:01.038Z,95810.72
2023-04-16T15:22:28.311Z,95801.22
2023-04-16T15:24:55.436Z,95808.84
2023-04-16T15:27:24.012Z,95810.06
2023-04-16T15:29:51.395Z,95811.66
2023-04-16T15:32:18.675Z,95813.28
2023-04-16T15:34:45.851Z,95812.84
2023-04-16T15:37:13.067Z,95813.69
2023-04-16T15:39:40.250Z,95816.34
2023-04-16T15:42:08.247Z,95824.47
2023-04-16T15:44:37.031Z,95819.22
2023-04-16T15:47:04.710Z,95811.63
2023-04-16T15:49:31.850Z,95813.84
2023-04-16T15:51:59.156Z,95809.16
2023-04-16T15:54:26.343Z,95808.38
2023-04-16T15:56:53.595Z,95820.28
2023-04-16T15:59:20.765Z,95820.28
2023-04-16T16:01:49.371Z,95820.09
2023-04-16T16:04:16.721Z,95824.50
2023-04-16T16:06:43.952Z,95819.63
2023-04-16T16:09:11.780Z,95820.81
2023-04-16T16:11:39.212Z,95828.09
2023-04-16T16:14:06.375Z,95829.31
2023-04-16T16:16:33.674Z,95834.63
2023-04-16T16:19:02.319Z,95833.00
2023-04-16T16:21:30.337Z,95829.44
2023-04-16T16:23:57.594Z,95837.09
2023-04-16T16:26:24.809Z,95837.09
2023-04-16T16:28:52.076Z,95835.47
2023-04-16T16:31:19.196Z,95831.25
2023-04-16T16:33:46.421Z,95832.22
2023-04-16T16:36:15.514Z,95841.50
2023-04-16T16:38:42.793Z,95843.34
2023-04-16T16:41:10.127Z,95827.19
2023-04-16T16:43:37.481Z,95839.91
2023-04-16T16:46:06.039Z,95832.44
2023-04-16T16:48:33.351Z,95844.34
2023-04-16T16:51:00.552Z,95843.94
2023-04-16T16:53:29.193Z,95840.72
2023-04-16T16:55:56.471Z,95845.97
2023-04-16T16:58:23.549Z,95846.59
2023-04-16T17:00:50.848Z,95848.06
2023-04-16T17:03:18.104Z,95851.31
2023-04-16T17:05:45.431Z,95850.94
2023-04-16T17:08:12.711Z,95842.84
2023-04-16T17:10:41.328Z,95848.69
2023-04-16T17:13:08.396Z,95852.94
2023-04-16T17:15:35.599Z,95850.50
2023-04-16T17:18:02.720Z,95854.94
2023-04-16T17:20:29.855Z,95856.19
2023-04-16T17:22:57.011Z,95856.41
2023-04-16T17:25:24.056Z,95859.59
2023-04-16T17:27:52.601Z,95860.19
2023-04-16T17:30:20.116Z,95857.59
2023-04-16T17:32:47.245Z,95855.59
2023-04-16T17:35:14.435Z,95849.50
2023-04-16T17:37:41.554Z,95856.19
2023-04-16T17:40:09.858Z,95852.53
2023-04-16T17:42:37.524Z,95858.81
2023-04-16T17:45:07.199Z,95860.63
2023-04-16T17:47:36.736Z,95849.72
2023-04-16T17:50:05.586Z,95852.56
2023-04-16T17:52:32.959Z,95855.78
2023-04-16T17:55:00.534Z,95851.75
2023-04-16T17:57:28.078Z,95852.94
2023-04-16T17:59:55.708Z,95857.22
2023-04-16T18:02:24.581Z,95858.41
2023-04-16T18:04:52.107Z,95864.28
2023-04-16T18:07:19.781Z,95862.97
2023-04-16T18:09:47.170Z,95856.94
2023-04-16T18:12:14.570Z,95851.91
2023-04-16T18:14:41.749Z,95859.31
2023-04-16T18:17:09.633Z,95853.66
2023-04-16T18:19:38.657Z,95853.06
2023-04-16T18:22:06.492Z,95852.47
2023-04-16T18:24:33.969Z,95855.50
2023-04-16T18:27:01.693Z,95852.88
2023-04-16T18:29:29.379Z,95844.00
2023-04-16T18:31:56.631Z,95854.28
2023-04-16T18:34:24.182Z,95854.94
2023-04-16T18:36:52.808Z,95861.97
2023-04-16T18:39:20.409Z,95858.97
2023-04-16T18:41:49.365Z,95858.56
2023-04-16T18:44:16.727Z,95857.34
2023-04-16T18:46:43.881Z,95861.38
2023-04-16T18:49:11.417Z,95861.59
2023-04-16T18:51:39.649Z,95866.88
2023-04-16T18:54:08.379Z,95866.44
2023-04-16T18:56:35.694Z,95871.69
2023-04-16T18:59:03.845Z,95874.50
2023-04-16T19:01:31.118Z,95875.13
2023-04-16T19:03:58.444Z,95881.34
2023-04-16T19:06:29.169Z,95881.16
2023-04-16T19:08:56.408Z,95879.53
2023-04-16T19:11:25.597Z,95881.13
2023-04-16T19:13:53.194Z,95882.66
2023-04-16T19:16:20.426Z,95885.03
2023-04-16T19:18:52.392Z,95881.09
2023-04-16T19:21:19.872Z,95887.41
2023-04-16T19:23:47.128Z,95883.34
2023-04-16T19:26:14.383Z,95887.75
2023-04-16T19:28:43.166Z,95890.84
2023-04-16T19:31:10.592Z,95886.00
2023-04-16T19:33:38.240Z,95891.06
2023-04-16T19:36:05.688Z,95887.63
2023-04-16T19:38:32.916Z,95884.41
2023-04-16T19:41:00.213Z,95892.06
2023-04-16T19:43:30.387Z,95888.81
2023-04-16T19:45:59.643Z,95889.66
2023-04-16T19:48:27.062Z,95893.25
2023-04-16T19:50:54.288Z,95890.44
2023-04-16T19:53:21.432Z,95895.06
2023-04-16T19:55:48.647Z,95888.41
2023-04-16T19:58:15.947Z,95895.28
2023-04-16T20:00:43.540Z,95897.69
2023-04-16T20:03:12.539Z,95889.63
2023-04-16T20:05:39.814Z,95891.44
2023-04-16T20:08:07.109Z,95887.97
2023-04-16T20:10:34.227Z,95887.41
2023-04-16T20:13:01.835Z,95877.09
2023-04-16T20:15:29.249Z,95876.50
2023-04-16T20:17:56.511Z,95867.41
2023-04-16T20:20:25.165Z,95867.84
2023-04-16T20:22:52.304Z,95880.13
2023-04-16T20:25:19.834Z,95867.59
2023-04-16T20:27:47.203Z,95868.38
2023-04-16T20:30:14.678Z,95869.41
2023-04-16T20:32:41.845Z,95866.59
2023-04-16T20:35:10.299Z,95872.44
2023-04-16T20:37:39.799Z,95862.16
2023-04-16T20:40:08.652Z,95873.25
2023-04-16T20:42:36.089Z,95863.97
2023-04-16T20:45:03.501Z,95863.56
2023-04-16T20:47:30.628Z,95861.72
2023-04-16T20:49:57.844Z,95862.75
2023-04-16T20:52:25.042Z,95857.50
2023-04-16T20:54:53.807Z,95847.78
2023-04-16T20:57:20.921Z,95850.41
2023-04-16T20:59:48.087Z,95845.16
2023-04-16T21:02:15.482Z,95844.31
2023-04-16T21:04:43.070Z,95842.72
2023-04-16T21:07:10.207Z,95835.84
2023-04-16T21:09:37.354Z,95830.81
2023-04-16T21:12:06.595Z,95833.03
2023-04-16T21:14:33.807Z,95830.81
2023-04-16T21:17:00.849Z,95825.78
2023-04-16T21:19:27.982Z,95823.63
2023-04-16T21:21:55.130Z,95809.88
2023-04-16T21:24:22.346Z,95815.38
2023-04-16T21:26:49.504Z,95811.53
2023-04-16T21:29:17.995Z,95809.03
2023-04-16T21:31:45.215Z,95810.84
2023-04-16T21:34:12.446Z,95814.91
2023-04-16T21:36:39.631Z,95814.78
2023-04-16T21:39:06.686Z,95817.13
2023-04-16T21:41:33.908Z,95813.34
2023-04-16T21:44:01.013Z,95812.50
2023-04-16T21:46:29.737Z,95811.09
2023-04-16T21:48:56.945Z,95818.59
2023-04-16T21:51:24.073Z,95813.94
2023-04-16T21:53:51.367Z,95818.56
2023-04-16T21:56:18.528Z,95817.56
2023-04-16T21:58:45.571Z,95818.31
2023-04-16T22:01:12.770Z,95811.28
2023-04-16T22:03:41.781Z,95823.38
2023-04-16T22:06:08.966Z,95816.75
2023-04-16T22:08:36.110Z,95805.38
2023-04-16T22:11:03.671Z,95807.94
2023-04-16T22:13:31.163Z,95808.00
2023-04-16T22:15:59.532Z,95799.53
2023-04-16T22:18:26.949Z,95799.09
2023-04-16T22:20:56.206Z,95792.88
2023-04-16T22:23:23.945Z,95786.00
2023-04-16T22:25:55.236Z,95773.66
2023-04-16T22:28:22.687Z,95782.38
2023-04-16T22:30:50.384Z,95773.91
2023-04-16T22:33:17.617Z,95768.25
2023-04-16T22:35:44.817Z,95765.84
2023-04-16T22:38:13.542Z,95757.16
2023-04-16T22:40:40.731Z,95757.56
2023-04-16T22:43:07.856Z,95759.56
2023-04-16T22:45:35.206Z,95761.34
2023-04-16T22:48:02.358Z,95749.88
2023-04-16T22:50:29.603Z,95754.13
2023-04-16T22:52:56.805Z,95751.69
2023-04-16T22:55:25.545Z,95748.28
2023-04-16T22:57:52.721Z,95747.09
2023-04-16T23:00:19.986Z,95753.72
2023-04-16T23:02:47.190Z,95756.16
2023-04-16T23:05:14.265Z,95761.72
2023-04-16T23:07:41.668Z,95754.44
2023-04-16T23:10:09.287Z,95746.50
2023-04-16T23:12:37.861Z,95744.63
2023-04-16T23:15:06.230Z,95743.53
2023-04-16T23:17:33.525Z,95735.31
2023-04-16T23:20:00.728Z,95733.94
2023-04-16T23:22:28.026Z,95735.75
2023-04-16T23:24:55.253Z,95736.09
2023-04-16T23:27:22.548Z,95743.28
2023-04-16T23:29:51.151Z,95735.88
2023-04-16T23:32:18.332Z,95751.81
2023-04-16T23:34:45.594Z,95743.78
2023-04-16T23:37:12.746Z,95737.66
2023-04-16T23:39:39.919Z,95743.13
2023-04-16T23:42:07.113Z,95746.94
2023-04-16T23:44:34.279Z,95741.34
2023-04-16T23:47:02.955Z,95741.00
2023-04-16T23:49:30.422Z,95730.47
2023-04-16T23:51:57.664Z,95735.56
2023-04-16T23:54:24.787Z,95732.41
2023-04-16T23:56:51.826Z,95729.06
2023-04-16T23:59:19.358Z,95722.19
